Time;durP1;ratioP1;P1;durP2;ratioP2;P2;SDS_P1;SDS_P2;PMS_P1;PMS_P2;Temp;Humidity;BMP_temperature;BMP_pressure;BME280_temperature;BME280_humidity;BME280_pressure;Samples;Min_cycle;Max_cycle;Signal;HPM_P1;HPM_P2
2021/12/23 00:00:50;;;;;;;77.03;31.27;;;;;;;-8.44;84.31;99001.97;2553517;28;20090;-77
2021/12/23 00:02:05;;;;;;;75.00;32.67;;;;;;;-8.43;84.68;99004.59;2551409;28;20056;-77
2021/12/23 00:03:21;;;;;;;76.60;29.45;;;;;;;-8.29;85.00;99002.84;2552130;29;20509;-77
2021/12/23 00:04:37;;;;;;;72.53;29.75;;;;;;;-8.26;85.07;99009.72;2554235;29;20173;-76
2021/12/23 00:05:55;;;;;;;79.45;30.33;;;;;;;-8.22;84.94;99007.47;2553968;29;20499;-77
2021/12/23 00:07:11;;;;;;;69.95;29.20;;;;;;;-8.13;84.75;98999.47;2552191;28;20721;-77
2021/12/23 00:08:27;;;;;;;66.45;28.75;;;;;;;-8.07;84.60;99000.63;2552834;29;20056;-77
2021/12/23 00:10:04;;;;;;;66.20;27.00;;;;;;;-8.01;84.90;99001.81;2550927;29;20051;-76
2021/12/23 00:11:18;;;;;;;62.88;25.42;;;;;;;-7.96;84.78;99000.41;2552859;29;20493;-78
2021/12/23 00:12:39;;;;;;;63.53;27.73;;;;;;;-8.04;84.35;98993.16;2551905;29;20060;-77
2021/12/23 00:14:03;;;;;;;65.75;26.23;;;;;;;-8.16;83.89;99001.84;2552023;29;20097;-77
2021/12/23 00:15:38;;;;;;;61.47;25.40;;;;;;;-8.23;83.83;98994.69;2552211;29;20052;-77
2021/12/23 00:17:18;;;;;;;59.20;25.30;;;;;;;-8.27;83.79;98987.66;2550133;29;20500;-77
2021/12/23 00:23:21;;;;;;;65.70;26.52;;;;;;;-8.49;83.88;98976.31;2550631;29;20047;-77
2021/12/23 00:23:24;;;;;;;66.68;26.10;;;;;;;-8.56;84.46;98980.22;2551141;29;20055;-77
2021/12/23 00:24:41;;;;;;;69.57;28.05;;;;;;;-8.55;84.61;98976.00;2551305;29;20115;-77
2021/12/23 00:26:00;;;;;;;70.20;27.45;;;;;;;-8.48;84.58;98979.72;2553602;29;20139;-77
2021/12/23 00:27:16;;;;;;;72.82;28.83;;;;;;;-8.45;84.49;98982.41;2554002;28;20622;-77
2021/12/23 00:28:32;;;;;;;74.00;29.65;;;;;;;-8.46;84.51;98986.66;2551556;29;20157;-82
2021/12/23 00:29:48;;;;;;;70.38;28.42;;;;;;;-8.47;84.12;98989.09;2552971;28;20047;-77
2021/12/23 00:31:03;;;;;;;66.38;28.70;;;;;;;-8.43;84.37;98994.44;2553080;28;20070;-77
2021/12/23 00:32:19;;;;;;;64.30;26.90;;;;;;;-8.47;84.44;98984.91;2553705;29;20047;-77
2021/12/23 00:33:36;;;;;;;74.40;29.42;;;;;;;-8.45;84.41;98984.97;2551277;29;20051;-76
2021/12/23 00:34:52;;;;;;;71.43;30.33;;;;;;;-8.43;84.27;98985.94;2550926;29;20075;-77
2021/12/23 00:36:09;;;;;;;65.05;26.75;;;;;;;-8.29;84.63;98984.16;2552256;28;20051;-78
2021/12/23 00:37:25;;;;;;;61.45;24.67;;;;;;;-8.16;84.25;98975.56;2552065;29;20055;-77
2021/12/23 00:38:54;;;;;;;74.47;29.13;;;;;;;-8.20;84.20;98966.91;2552116;29;20271;-78
2021/12/23 00:40:13;;;;;;;64.28;25.05;;;;;;;-8.30;83.99;98969.72;2551916;29;20062;-78
2021/12/23 00:41:31;;;;;;;65.03;26.85;;;;;;;-8.35;84.13;98958.44;2552145;29;20051;-77
2021/12/23 00:42:46;;;;;;;67.93;27.27;;;;;;;-8.40;84.05;98974.28;2551434;29;20055;-78
2021/12/23 00:44:03;;;;;;;74.88;27.42;;;;;;;-8.44;84.06;98969.81;2552842;29;20055;-78
2021/12/23 00:45:20;;;;;;;65.15;25.35;;;;;;;-8.48;84.10;98970.44;2550831;29;20508;-79
2021/12/23 00:46:36;;;;;;;68.45;28.10;;;;;;;-8.50;83.94;98982.22;2553649;29;20047;-77
2021/12/23 00:47:51;;;;;;;67.88;27.92;;;;;;;-8.53;83.82;98979.47;2551747;29;20052;-77
2021/12/23 00:49:07;;;;;;;68.18;27.85;;;;;;;-8.56;84.04;98975.13;2551354;28;20070;-78
2021/12/23 00:50:23;;;;;;;66.35;27.88;;;;;;;-8.55;83.98;98970.91;2552024;28;20083;-78
2021/12/23 00:51:38;;;;;;;71.07;28.92;;;;;;;-8.57;83.87;98959.81;2556487;29;20510;-77
2021/12/23 00:52:57;;;;;;;65.18;27.30;;;;;;;-8.60;83.80;98962.16;2555207;29;20062;-77
2021/12/23 00:54:12;;;;;;;65.28;27.45;;;;;;;-8.64;83.67;98957.72;2554120;28;20181;-77
2021/12/23 00:55:28;;;;;;;61.20;26.10;;;;;;;-8.67;83.88;98959.28;2553602;29;20173;-78
2021/12/23 00:56:48;;;;;;;60.45;24.17;;;;;;;-8.70;83.65;98961.63;2552075;29;20390;-77
2021/12/23 00:58:04;;;;;;;58.50;25.58;;;;;;;-8.69;83.46;98965.06;2552368;29;20055;-77
2021/12/23 00:59:20;;;;;;;59.67;24.63;;;;;;;-8.73;83.13;98969.09;2552858;29;20506;-81
2021/12/23 01:00:36;;;;;;;60.75;24.80;;;;;;;-8.77;83.27;98967.16;2551173;29;20530;-80
2021/12/23 01:01:51;;;;;;;61.25;24.67;;;;;;;-8.81;83.05;98965.22;2552625;29;20051;-77
2021/12/23 01:03:07;;;;;;;53.97;22.10;;;;;;;-8.82;83.33;98963.47;2551488;29;20855;-77
2021/12/23 01:04:23;;;;;;;62.92;25.17;;;;;;;-8.85;83.32;98968.38;2551737;28;20055;-78
2021/12/23 01:05:39;;;;;;;58.17;25.02;;;;;;;-8.87;83.03;98973.38;2553260;28;20106;-77
2021/12/23 01:06:54;;;;;;;55.95;22.65;;;;;;;-8.85;83.25;98971.81;2549797;28;20487;-77
2021/12/23 01:08:10;;;;;;;62.22;23.63;;;;;;;-8.69;84.23;98978.63;2551732;29;20200;-83
2021/12/23 01:09:26;;;;;;;59.40;24.63;;;;;;;-8.56;84.52;98971.69;2551673;29;20174;-77
2021/12/23 01:10:42;;;;;;;54.00;22.48;;;;;;;-8.51;83.99;98968.63;2549800;29;20557;-77
2021/12/23 01:11:57;;;;;;;58.00;24.25;;;;;;;-8.52;84.11;98964.34;2551987;29;20562;-80
2021/12/23 01:13:14;;;;;;;55.25;23.77;;;;;;;-8.58;83.91;98958.06;2553012;29;20083;-77
2021/12/23 01:14:40;;;;;;;63.63;24.67;;;;;;;-8.68;83.23;98959.19;2552450;29;20064;-80
2021/12/23 01:16:01;;;;;;;50.55;22.75;;;;;;;-8.80;83.05;98965.31;2550991;29;20058;-77
2021/12/23 01:18:43;;;;;;;54.55;21.25;;;;;;;-8.86;82.92;98959.03;2551660;29;20059;-77
2021/12/23 01:20:01;;;;;;;55.72;22.73;;;;;;;-8.89;83.03;98958.84;2552827;29;20059;-77
2021/12/23 01:21:17;;;;;;;52.85;21.80;;;;;;;-8.91;82.83;98961.28;2551017;29;20067;-80
2021/12/23 01:22:32;;;;;;;56.88;23.90;;;;;;;-8.88;83.09;98960.59;2552454;29;20043;-76
2021/12/23 01:23:50;;;;;;;52.00;23.15;;;;;;;-8.85;82.93;98958.22;2553659;29;20486;-78
2021/12/23 01:25:06;;;;;;;52.72;21.92;;;;;;;-8.86;82.72;98966.63;2550602;29;20289;-77
2021/12/23 01:26:23;;;;;;;50.05;20.48;;;;;;;-8.92;82.90;98962.06;2551676;29;20098;-77
2021/12/23 01:27:39;;;;;;;50.67;20.35;;;;;;;-8.80;83.24;98966.97;2550504;29;20555;-77
2021/12/23 01:28:57;;;;;;;54.92;22.25;;;;;;;-8.51;83.95;98968.63;2550557;29;20062;-76
2021/12/23 01:30:14;;;;;;;53.35;20.13;;;;;;;-8.39;83.41;98973.47;2551123;29;20051;-77
2021/12/23 01:31:31;;;;;;;53.92;21.77;;;;;;;-8.47;83.29;98959.50;2550413;29;20056;-77
2021/12/23 01:32:49;;;;;;;56.80;20.73;;;;;;;-8.58;83.17;98960.59;2551271;29;20596;-78
2021/12/23 01:34:06;;;;;;;57.15;22.02;;;;;;;-8.69;83.12;98965.94;2553077;29;20125;-79
2021/12/23 01:35:24;;;;;;;54.42;22.05;;;;;;;-8.78;83.07;98967.06;2551362;29;20545;-78
2021/12/23 01:36:40;;;;;;;58.67;20.95;;;;;;;-8.81;83.50;98965.22;2550837;29;20066;-77
2021/12/23 01:37:55;;;;;;;59.80;22.40;;;;;;;-8.83;83.54;98965.16;2552863;28;20051;-78
2021/12/23 01:39:13;;;;;;;62.10;22.27;;;;;;;-8.85;83.70;98969.28;2551690;29;20505;-77
2021/12/23 01:40:29;;;;;;;50.85;20.98;;;;;;;-8.84;83.83;98967.59;2550723;29;20086;-77
2021/12/23 01:41:45;;;;;;;52.55;20.73;;;;;;;-8.84;83.99;98958.34;2551722;29;20051;-78
2021/12/23 01:43:03;;;;;;;50.05;20.77;;;;;;;-8.83;84.26;98955.00;2550469;29;20058;-79
2021/12/23 01:44:18;;;;;;;51.08;20.25;;;;;;;-8.86;83.81;98949.75;2551725;29;20078;-80
2021/12/23 01:45:34;;;;;;;49.92;19.15;;;;;;;-8.86;83.68;98941.25;2552398;28;20055;-77
2021/12/23 01:46:50;;;;;;;50.80;20.80;;;;;;;-8.87;84.02;98945.47;2551574;28;20051;-77
2021/12/23 01:48:06;;;;;;;53.67;20.45;;;;;;;-8.86;84.11;98938.72;2551370;29;20627;-80
2021/12/23 01:49:21;;;;;;;50.70;18.85;;;;;;;-8.85;84.12;98935.38;2552166;29;20051;-79
2021/12/23 01:50:39;;;;;;;52.92;22.52;;;;;;;-8.80;84.25;98939.06;2551428;29;20052;-77
2021/12/23 01:51:54;;;;;;;53.67;22.80;;;;;;;-8.77;83.87;98935.81;2551595;29;20058;-80
2021/12/23 01:53:10;;;;;;;54.60;21.20;;;;;;;-8.75;84.05;98932.59;2550564;29;20056;-77
2021/12/23 01:54:26;;;;;;;60.38;21.95;;;;;;;-8.73;83.76;98936.09;2551631;28;20107;-77
2021/12/23 01:55:42;;;;;;;51.00;20.20;;;;;;;-8.72;83.76;98934.44;2551712;29;20052;-80
2021/12/23 01:56:59;;;;;;;53.38;21.60;;;;;;;-8.67;84.04;98933.88;2550220;29;20048;-78
2021/12/23 01:58:15;;;;;;;52.78;20.60;;;;;;;-8.61;84.58;98929.97;2550880;29;20400;-77
2021/12/23 01:59:34;;;;;;;56.22;23.08;;;;;;;-8.62;84.33;98931.59;2553327;29;20061;-77
2021/12/23 02:00:52;;;;;;;56.20;21.85;;;;;;;-8.68;84.27;98929.59;2550387;29;21119;-80
2021/12/23 02:02:07;;;;;;;50.53;20.17;;;;;;;-8.62;84.25;98923.13;2550442;29;20074;-77
2021/12/23 02:03:23;;;;;;;52.10;20.13;;;;;;;-8.67;84.09;98921.19;2552201;29;20508;-77
2021/12/23 02:04:39;;;;;;;50.22;20.33;;;;;;;-8.71;83.89;98919.28;2550254;29;20103;-77
2021/12/23 02:05:54;;;;;;;54.83;21.70;;;;;;;-8.76;83.75;98910.53;2551683;29;20055;-77
2021/12/23 02:07:10;;;;;;;49.65;19.92;;;;;;;-8.77;83.99;98910.44;2551339;29;20139;-77
2021/12/23 02:08:26;;;;;;;51.67;20.45;;;;;;;-8.80;83.87;98914.56;2551669;28;20579;-76
2021/12/23 02:09:42;;;;;;;50.08;19.83;;;;;;;-8.81;84.06;98909.38;2552866;29;20051;-77
2021/12/23 02:10:59;;;;;;;49.80;21.27;;;;;;;-8.85;83.86;98913.44;2551728;29;20047;-77
2021/12/23 02:12:16;;;;;;;54.08;20.73;;;;;;;-8.88;84.02;98913.25;2550800;29;20071;-77
2021/12/23 02:13:33;;;;;;;56.90;20.45;;;;;;;-8.88;83.69;98907.31;2552965;29;20696;-78
2021/12/23 02:14:48;;;;;;;48.63;19.17;;;;;;;-8.88;83.90;98902.22;2552800;29;20833;-76
2021/12/23 02:16:05;;;;;;;52.50;20.63;;;;;;;-8.88;83.78;98900.56;2551649;29;20085;-76
2021/12/23 02:17:21;;;;;;;52.63;19.35;;;;;;;-8.88;83.59;98900.56;2553169;28;20055;-78
2021/12/23 02:18:36;;;;;;;51.70;19.98;;;;;;;-8.89;83.51;98891.19;2550516;29;20051;-76
2021/12/23 02:19:55;;;;;;;48.30;20.13;;;;;;;-8.89;83.44;98892.88;2550646;28;20048;-78
2021/12/23 02:21:11;;;;;;;41.58;18.50;;;;;;;-8.87;83.48;98893.84;2551732;29;20162;-77
2021/12/23 02:22:27;;;;;;;51.90;20.30;;;;;;;-8.87;83.42;98891.28;2550350;29;20063;-77
2021/12/23 02:23:42;;;;;;;45.70;19.85;;;;;;;-8.89;83.07;98896.28;2550198;28;20075;-76
2021/12/23 02:24:58;;;;;;;52.35;20.30;;;;;;;-8.87;83.27;98896.38;2552990;29;20477;-76
2021/12/23 02:26:13;;;;;;;53.42;18.38;;;;;;;-8.88;83.01;98890.41;2551890;28;20051;-77
2021/12/23 02:27:29;;;;;;;48.58;20.55;;;;;;;-8.86;82.81;98893.03;2550908;29;20051;-79
2021/12/23 02:28:44;;;;;;;48.00;19.63;;;;;;;-8.82;82.98;98889.88;2551062;28;20094;-80
2021/12/23 02:30:02;;;;;;;47.33;19.77;;;;;;;-8.80;83.11;98880.69;2550232;29;20490;-77
2021/12/23 02:31:18;;;;;;;45.80;18.77;;;;;;;-8.81;82.79;98872.22;2550461;28;20348;-77
2021/12/23 02:32:35;;;;;;;44.95;19.08;;;;;;;-8.81;82.68;98867.13;2551924;29;20062;-77
2021/12/23 02:33:50;;;;;;;47.00;19.58;;;;;;;-8.80;82.78;98858.72;2549712;29;20574;-77
2021/12/23 02:35:09;;;;;;;48.80;19.17;;;;;;;-8.82;82.65;98851.81;2550444;29;20051;-77
2021/12/23 02:36:26;;;;;;;47.70;17.02;;;;;;;-8.88;83.16;98856.56;2550193;28;20479;-76
2021/12/23 02:37:43;;;;;;;43.67;18.00;;;;;;;-8.93;83.71;98856.31;2549924;29;20055;-78
2021/12/23 02:38:59;;;;;;;47.50;19.05;;;;;;;-8.96;84.03;98851.06;2551710;29;20051;-77
2021/12/23 02:40:35;;;;;;;44.47;17.35;;;;;;;-8.99;84.66;98853.44;2550416;29;20408;-76
2021/12/23 02:41:50;;;;;;;50.33;18.40;;;;;;;-9.00;85.32;98854.22;2551148;29;20059;-77
2021/12/23 02:43:18;;;;;;;47.70;19.02;;;;;;;-9.01;85.54;98848.25;2550410;29;20055;-78
2021/12/23 02:44:34;;;;;;;45.42;17.25;;;;;;;-8.99;85.83;98843.28;2551419;29;20047;-78
2021/12/23 02:45:52;;;;;;;51.78;18.45;;;;;;;-8.99;86.10;98855.97;2551420;29;20048;-78
2021/12/23 02:47:08;;;;;;;47.95;18.58;;;;;;;-8.94;85.82;98850.38;2551584;28;20082;-77
2021/12/23 02:48:31;;;;;;;47.53;18.50;;;;;;;-8.80;85.65;98847.69;2550372;29;20509;-77
2021/12/23 02:49:47;;;;;;;40.58;17.38;;;;;;;-8.62;86.06;98852.06;2551920;29;20048;-77
2021/12/23 02:51:07;;;;;;;48.42;17.83;;;;;;;-8.58;85.71;98843.81;2550840;28;20047;-77
2021/12/23 02:52:23;;;;;;;48.88;18.42;;;;;;;-8.61;85.36;98846.19;2550518;29;20139;-77
2021/12/23 02:53:40;;;;;;;46.25;18.52;;;;;;;-8.63;85.27;98835.09;2550965;29;20066;-76
2021/12/23 02:54:58;;;;;;;52.15;18.25;;;;;;;-8.68;85.13;98843.28;2549428;29;20447;-78
2021/12/23 02:56:15;;;;;;;49.30;18.20;;;;;;;-8.70;85.33;98839.81;2549517;29;20047;-77
2021/12/23 02:57:32;;;;;;;46.90;17.95;;;;;;;-8.72;85.08;98831.22;2555104;28;20059;-78
2021/12/23 02:58:48;;;;;;;51.70;19.45;;;;;;;-8.76;84.70;98828.44;2552744;28;20051;-77
2021/12/23 03:00:05;;;;;;;51.22;19.77;;;;;;;-8.78;84.52;98828.38;2550374;29;20055;-78
2021/12/23 03:01:22;;;;;;;47.65;18.33;;;;;;;-8.76;84.76;98830.97;2551179;29;20068;-77
2021/12/23 03:02:39;;;;;;;49.75;19.98;;;;;;;-8.77;84.60;98830.13;2550785;29;20105;-77
2021/12/23 03:03:55;;;;;;;47.20;19.02;;;;;;;-8.76;84.76;98825.91;2552530;29;20055;-77
2021/12/23 03:05:11;;;;;;;49.90;19.75;;;;;;;-8.74;84.77;98835.34;2550971;28;20078;-77
2021/12/23 03:06:27;;;;;;;46.38;18.23;;;;;;;-8.63;84.89;98823.25;2549354;29;20050;-77
2021/12/23 03:07:42;;;;;;;45.03;19.08;;;;;;;-8.54;84.53;98825.41;2551240;29;20227;-79
2021/12/23 03:09:00;;;;;;;47.38;18.25;;;;;;;-8.44;84.26;98827.63;2549973;29;20048;-77
2021/12/23 03:10:16;;;;;;;50.90;19.30;;;;;;;-8.46;84.38;98826.66;2550915;29;20056;-80
2021/12/23 03:11:32;;;;;;;48.85;18.88;;;;;;;-8.49;84.36;98834.13;2552634;28;20520;-77
2021/12/23 03:12:48;;;;;;;49.10;19.52;;;;;;;-8.51;84.18;98829.00;2552449;28;20086;-76
2021/12/23 03:14:04;;;;;;;43.58;17.92;;;;;;;-8.52;84.50;98826.34;2550942;29;20063;-78
2021/12/23 03:15:20;;;;;;;44.95;18.20;;;;;;;-8.53;84.62;98819.53;2551307;29;20521;-78
2021/12/23 03:16:38;;;;;;;49.88;18.83;;;;;;;-8.54;84.39;98816.13;2549472;29;20051;-78
2021/12/23 03:17:54;;;;;;;44.85;17.65;;;;;;;-8.58;84.22;98815.88;2549877;29;20066;-78
2021/12/23 03:19:09;;;;;;;47.85;18.20;;;;;;;-8.59;84.22;98819.22;2550703;29;20842;-77
2021/12/23 03:20:25;;;;;;;48.83;18.48;;;;;;;-8.63;84.09;98802.94;2550486;28;20048;-77
2021/12/23 03:21:44;;;;;;;51.50;19.48;;;;;;;-8.61;84.25;98810.66;2551584;29;20067;-78
2021/12/23 03:22:59;;;;;;;43.28;17.63;;;;;;;-8.63;84.04;98809.69;2551775;28;20058;-78
2021/12/23 03:24:15;;;;;;;45.35;18.08;;;;;;;-8.64;83.90;98811.34;2550105;29;20091;-77
2021/12/23 03:25:31;;;;;;;43.70;18.52;;;;;;;-8.67;83.95;98809.50;2551910;29;20056;-77
2021/12/23 03:26:47;;;;;;;51.67;19.20;;;;;;;-8.68;84.17;98795.06;2550566;29;20134;-78
2021/12/23 03:28:03;;;;;;;46.25;16.83;;;;;;;-8.68;84.22;98796.75;2548682;29;20213;-78
2021/12/23 03:29:19;;;;;;;41.03;18.38;;;;;;;-8.68;84.49;98800.16;2550316;29;20490;-78
2021/12/23 03:30:34;;;;;;;45.30;19.08;;;;;;;-8.69;84.48;98798.41;2552425;29;20065;-79
2021/12/23 03:31:50;;;;;;;42.78;18.25;;;;;;;-8.67;84.57;98791.72;2552870;28;20426;-78
2021/12/23 03:33:05;;;;;;;44.55;17.08;;;;;;;-8.66;84.67;98800.25;2554975;29;20066;-77
2021/12/23 03:34:21;;;;;;;45.13;16.17;;;;;;;-8.66;84.78;98796.06;2552477;29;20067;-79
2021/12/23 03:35:37;;;;;;;45.00;18.45;;;;;;;-8.68;84.70;98792.53;2552076;29;20470;-82
2021/12/23 03:36:53;;;;;;;41.40;16.38;;;;;;;-8.69;84.54;98784.84;2554328;29;20149;-78
2021/12/23 03:38:08;;;;;;;46.55;18.23;;;;;;;-8.73;84.18;98783.81;2551705;29;20525;-78
2021/12/23 03:39:24;;;;;;;38.78;17.50;;;;;;;-8.74;84.12;98782.06;2551408;29;20067;-78
2021/12/23 03:40:40;;;;;;;44.65;17.80;;;;;;;-8.75;84.17;98777.78;2554722;28;20088;-79
2021/12/23 03:41:56;;;;;;;41.35;17.55;;;;;;;-8.75;84.30;98777.78;2552377;29;20047;-78
2021/12/23 03:43:14;;;;;;;50.92;20.02;;;;;;;-8.74;84.56;98787.13;2553847;29;20470;-80
2021/12/23 03:44:30;;;;;;;48.78;17.40;;;;;;;-8.51;84.57;98790.03;2553450;29;20102;-76
2021/12/23 03:45:48;;;;;;;45.95;18.38;;;;;;;-8.32;83.25;98803.69;2551693;29;20055;-76
2021/12/23 03:47:04;;;;;;;37.65;16.40;;;;;;;-8.23;82.34;98805.03;2552331;29;20158;-77
2021/12/23 03:48:20;;;;;;;40.05;16.90;;;;;;;-8.15;81.97;98802.03;2554319;28;20130;-78
2021/12/23 03:49:35;;;;;;;41.83;17.20;;;;;;;-8.03;81.55;98806.88;2551764;29;20047;-76
2021/12/23 03:50:51;;;;;;;45.70;18.02;;;;;;;-8.20;81.47;98799.25;2550954;29;20671;-77
2021/12/23 03:52:07;;;;;;;43.80;16.75;;;;;;;-8.30;82.26;98804.63;2552524;29;20499;-78
2021/12/23 03:53:22;;;;;;;49.35;18.25;;;;;;;-8.36;82.72;98792.47;2552986;28;20055;-79
2021/12/23 03:54:38;;;;;;;46.15;19.35;;;;;;;-8.47;83.27;98786.84;2551645;29;20058;-77
2021/12/23 03:55:54;;;;;;;46.65;18.17;;;;;;;-8.55;83.27;98785.56;2552697;29;20055;-76
2021/12/23 03:57:09;;;;;;;44.33;18.92;;;;;;;-8.64;83.32;98780.88;2551175;28;20059;-77
2021/12/23 03:58:25;;;;;;;52.17;19.13;;;;;;;-8.70;83.34;98778.88;2553034;28;20051;-77
2021/12/23 03:59:41;;;;;;;48.13;17.65;;;;;;;-8.72;83.74;98777.94;2550479;29;20086;-77
2021/12/23 04:00:56;;;;;;;54.15;19.05;;;;;;;-8.74;84.10;98776.97;2551002;29;20052;-77
2021/12/23 04:02:12;;;;;;;47.55;19.08;;;;;;;-8.78;84.07;98770.00;2551820;28;20777;-77
2021/12/23 04:03:27;;;;;;;47.03;18.15;;;;;;;-8.81;84.02;98767.28;2551309;29;20604;-78
2021/12/23 04:04:43;;;;;;;48.15;17.65;;;;;;;-8.86;83.44;98767.06;2552905;29;20052;-79
2021/12/23 04:05:59;;;;;;;44.25;15.63;;;;;;;-8.87;83.80;98764.41;2553969;28;20094;-77
2021/12/23 04:07:16;;;;;;;43.90;16.55;;;;;;;-8.88;83.67;98771.16;2553996;29;20046;-78
2021/12/23 04:08:32;;;;;;;49.13;18.88;;;;;;;-8.89;83.71;98768.53;2554512;29;20044;-77
2021/12/23 04:09:47;;;;;;;44.03;16.67;;;;;;;-8.91;83.52;98773.53;2553352;29;20601;-77
2021/12/23 04:11:03;;;;;;;41.15;15.90;;;;;;;-8.93;83.39;98767.50;2552088;28;20505;-77
2021/12/23 04:12:18;;;;;;;43.45;17.00;;;;;;;-8.94;83.43;98758.13;2551629;29;20051;-77
2021/12/23 04:13:34;;;;;;;36.55;15.50;;;;;;;-8.98;83.63;98754.56;2551344;29;20491;-77
2021/12/23 04:14:50;;;;;;;44.05;16.88;;;;;;;-8.94;83.54;98760.69;2551111;29;20256;-77
2021/12/23 04:16:06;;;;;;;41.92;16.67;;;;;;;-8.94;83.70;98748.88;2554227;29;20051;-79
2021/12/23 04:17:21;;;;;;;41.33;16.27;;;;;;;-8.91;83.82;98758.28;2552432;29;20051;-77
2021/12/23 04:18:37;;;;;;;43.10;16.20;;;;;;;-8.91;83.77;98744.75;2551298;29;20048;-77
2021/12/23 04:19:59;;;;;;;45.05;17.75;;;;;;;-8.91;84.02;98743.06;2552771;29;20146;-77
2021/12/23 04:21:15;;;;;;;46.03;18.58;;;;;;;-8.89;83.91;98740.63;2551411;29;20044;-77
2021/12/23 04:22:30;;;;;;;48.45;17.60;;;;;;;-8.91;84.19;98734.59;2551598;29;20195;-78
2021/12/23 04:23:46;;;;;;;41.67;16.42;;;;;;;-8.95;83.68;98725.94;2552924;29;20055;-76
2021/12/23 04:25:02;;;;;;;42.45;16.10;;;;;;;-8.98;83.78;98724.09;2552027;28;20126;-76
2021/12/23 04:26:18;;;;;;;39.50;16.45;;;;;;;-8.99;83.81;98729.97;2551869;29;20577;-78
2021/12/23 04:27:33;;;;;;;42.03;17.25;;;;;;;-9.00;83.83;98730.75;2551051;29;20047;-77
2021/12/23 04:28:51;;;;;;;44.72;17.60;;;;;;;-9.00;83.79;98729.91;2551391;29;20035;-79
2021/12/23 04:30:07;;;;;;;38.85;15.00;;;;;;;-8.99;83.80;98729.13;2553492;28;20407;-77
2021/12/23 04:31:24;;;;;;;39.72;15.43;;;;;;;-9.04;83.17;98723.78;2550982;29;20051;-80
2021/12/23 04:32:41;;;;;;;41.88;17.30;;;;;;;-9.05;83.41;98726.22;2551502;29;20134;-76
2021/12/23 04:33:57;;;;;;;42.00;18.02;;;;;;;-9.04;83.38;98725.44;2552223;29;20047;-77
2021/12/23 04:35:13;;;;;;;40.65;15.38;;;;;;;-9.04;83.56;98721.25;2551777;29;20062;-78
2021/12/23 04:36:31;;;;;;;43.42;16.83;;;;;;;-9.06;83.34;98724.47;2552204;29;20047;-77
2021/12/23 04:37:47;;;;;;;43.60;17.73;;;;;;;-9.06;83.45;98716.88;2551288;29;20043;-76
2021/12/23 04:39:04;;;;;;;43.80;15.68;;;;;;;-9.07;83.20;98710.94;2553277;28;20047;-76
2021/12/23 04:40:20;;;;;;;37.30;15.60;;;;;;;-9.08;83.40;98704.09;2551030;29;20055;-77
2021/12/23 04:41:36;;;;;;;41.05;17.60;;;;;;;-9.06;83.66;98707.63;2551510;29;20066;-78
2021/12/23 04:42:51;;;;;;;41.80;17.02;;;;;;;-9.06;83.71;98707.63;2551251;29;20063;-77
2021/12/23 04:44:07;;;;;;;40.58;16.25;;;;;;;-9.06;83.65;98709.25;2552866;29;20054;-77
2021/12/23 04:45:23;;;;;;;46.88;17.85;;;;;;;-9.06;83.93;98707.63;2550992;29;20477;-77
2021/12/23 04:46:38;;;;;;;47.55;17.67;;;;;;;-9.04;83.73;98713.66;2551250;29;20109;-76
2021/12/23 04:47:55;;;;;;;43.13;17.30;;;;;;;-9.04;83.80;98715.28;2550886;29;20047;-80
2021/12/23 04:49:10;;;;;;;42.13;16.58;;;;;;;-8.92;83.84;98712.56;2552587;29;20166;-77
2021/12/23 04:50:26;;;;;;;44.28;17.88;;;;;;;-8.90;84.00;98705.91;2551670;28;20055;-77
2021/12/23 04:51:42;;;;;;;45.55;17.55;;;;;;;-8.83;84.08;98700.34;2551193;29;20058;-77
2021/12/23 04:52:57;;;;;;;45.03;17.13;;;;;;;-8.84;83.99;98699.50;2552281;29;20545;-77
2021/12/23 04:54:13;;;;;;;48.95;18.83;;;;;;;-8.82;84.24;98686.88;2551476;28;20127;-77
2021/12/23 04:55:30;;;;;;;47.55;18.20;;;;;;;-8.84;84.12;98679.19;2549982;29;20431;-76
2021/12/23 04:56:46;;;;;;;64.88;23.00;;;;;;;-8.85;84.02;98682.53;2552182;29;20051;-76
2021/12/23 04:58:01;;;;;;;187.85;59.25;;;;;;;-8.83;83.95;98685.13;2550536;29;20062;-76
2021/12/23 04:59:17;;;;;;;76.78;28.52;;;;;;;-8.85;84.00;98682.53;2551240;29;20059;-76
2021/12/23 05:00:34;;;;;;;54.33;22.17;;;;;;;-8.89;83.45;98680.59;2550833;29;20070;-77
2021/12/23 05:01:50;;;;;;;50.83;20.52;;;;;;;-8.89;83.92;98674.66;2550604;29;20055;-77
2021/12/23 05:03:05;;;;;;;54.72;21.42;;;;;;;-8.92;84.06;98669.44;2551370;29;20158;-76
2021/12/23 05:04:21;;;;;;;46.28;19.17;;;;;;;-8.91;84.17;98679.63;2551910;28;20055;-75
2021/12/23 05:05:36;;;;;;;48.70;16.60;;;;;;;-8.82;84.15;98682.69;2552289;29;20110;-75
2021/12/23 05:06:52;;;;;;;56.53;18.00;;;;;;;-8.84;83.77;98681.72;2550802;29;20138;-79
2021/12/23 05:08:07;;;;;;;46.97;18.10;;;;;;;-8.85;83.79;98686.72;2552368;29;20584;-79
2021/12/23 05:09:23;;;;;;;45.22;18.67;;;;;;;-8.86;83.70;98675.69;2550817;29;20055;-76
2021/12/23 05:10:39;;;;;;;47.97;19.20;;;;;;;-8.86;83.94;98678.25;2552607;29;20052;-78
2021/12/23 05:11:55;;;;;;;46.80;17.63;;;;;;;-8.77;84.34;98675.31;2550514;29;20047;-79
2021/12/23 05:13:11;;;;;;;49.35;18.65;;;;;;;-8.65;84.05;98654.75;2550638;29;20059;-79
2021/12/23 05:14:26;;;;;;;48.60;18.58;;;;;;;-8.70;84.27;98639.28;2551834;28;20044;-77
2021/12/23 05:15:42;;;;;;;47.20;18.17;;;;;;;-8.74;84.06;98634.84;2551790;28;20061;-78
2021/12/23 05:16:58;;;;;;;48.28;19.90;;;;;;;-8.78;84.18;98643.13;2552538;28;20050;-77
2021/12/23 05:18:13;;;;;;;60.53;21.95;;;;;;;-8.82;83.89;98658.94;2550778;28;20078;-77
2021/12/23 05:19:29;;;;;;;44.78;18.85;;;;;;;-8.70;84.10;98667.22;2551726;28;20051;-78
2021/12/23 05:20:45;;;;;;;48.22;18.02;;;;;;;-8.49;83.62;98678.34;2551720;29;20141;-77
2021/12/23 05:22:00;;;;;;;50.30;18.75;;;;;;;-8.23;82.66;98682.25;2552049;29;20443;-77
2021/12/23 05:23:16;;;;;;;43.67;16.17;;;;;;;-8.16;82.20;98666.50;2551329;29;20056;-78
2021/12/23 05:24:32;;;;;;;47.15;17.80;;;;;;;-8.33;82.24;98649.56;2551547;29;20058;-77
2021/12/23 05:25:47;;;;;;;52.65;20.33;;;;;;;-8.47;82.68;98649.72;2551514;29;20047;-79
2021/12/23 05:27:03;;;;;;;52.08;19.20;;;;;;;-8.58;83.45;98656.84;2551455;29;20055;-79
2021/12/23 05:28:19;;;;;;;47.05;16.10;;;;;;;-8.65;83.80;98659.84;2551085;29;20060;-78
2021/12/23 05:29:34;;;;;;;43.28;17.25;;;;;;;-8.72;84.40;98661.19;2551321;28;20046;-79
2021/12/23 05:30:50;;;;;;;43.75;17.30;;;;;;;-8.75;84.54;98652.53;2551777;29;20487;-78
2021/12/23 05:32:06;;;;;;;46.03;17.33;;;;;;;-8.77;84.53;98655.00;2550455;29;20047;-78
2021/12/23 05:33:22;;;;;;;51.40;18.65;;;;;;;-8.77;84.58;98654.13;2550568;29;20059;-78
2021/12/23 05:34:37;;;;;;;45.03;18.50;;;;;;;-8.69;84.67;98656.25;2550768;29;20058;-77
2021/12/23 05:35:55;;;;;;;53.28;18.75;;;;;;;-8.69;84.41;98663.00;2550283;28;20043;-78
2021/12/23 05:37:10;;;;;;;48.05;19.02;;;;;;;-8.68;84.77;98664.75;2552841;29;20114;-82
2021/12/23 05:38:26;;;;;;;45.67;18.20;;;;;;;-8.68;84.67;98668.16;2551983;28;20087;-78
2021/12/23 05:39:41;;;;;;;47.83;18.02;;;;;;;-8.67;84.67;98656.34;2552279;29;20055;-78
2021/12/23 05:40:57;;;;;;;53.22;19.85;;;;;;;-8.68;84.74;98662.22;2553984;28;20052;-78
2021/12/23 05:42:13;;;;;;;48.30;19.52;;;;;;;-8.66;84.47;98653.00;2550762;29;20051;-78
2021/12/23 05:43:28;;;;;;;54.92;19.17;;;;;;;-8.66;84.28;98641.22;2552272;29;20402;-76
2021/12/23 05:44:44;;;;;;;55.22;20.95;;;;;;;-8.67;84.34;98639.44;2552093;29;20088;-80
2021/12/23 05:46:00;;;;;;;54.95;22.40;;;;;;;-8.64;84.45;98636.19;2550376;28;20088;-77
2021/12/23 05:47:16;;;;;;;57.88;22.35;;;;;;;-8.59;84.27;98639.84;2550710;29;20058;-77
2021/12/23 05:48:31;;;;;;;56.22;20.73;;;;;;;-8.57;84.28;98635.72;2553073;28;20051;-77
2021/12/23 05:49:47;;;;;;;64.97;23.80;;;;;;;-8.58;84.08;98626.38;2550802;28;20094;-78
2021/12/23 05:51:03;;;;;;;63.58;24.60;;;;;;;-8.58;84.22;98622.94;2551860;29;20043;-78
2021/12/23 05:52:18;;;;;;;69.90;27.13;;;;;;;-8.57;84.28;98622.16;2552507;29;20114;-78
2021/12/23 05:53:34;;;;;;;72.35;25.90;;;;;;;-8.51;84.19;98613.19;2549568;29;20052;-78
2021/12/23 05:54:49;;;;;;;72.38;28.58;;;;;;;-8.44;84.12;98605.84;2552533;29;20949;-77
2021/12/23 05:56:05;;;;;;;75.07;27.75;;;;;;;-8.43;83.89;98599.97;2552291;29;20082;-78
2021/12/23 05:57:21;;;;;;;68.38;25.85;;;;;;;-8.40;83.67;98611.13;2550148;28;20387;-77